Terminal Aerodrome Forecast
Issued by NWS

Home | Current Version | Previous Version | Text Only | Print | Product List | Glossary On
Versions: 1 2 3 4 5 6 7 8 9 10 11 12 13 14 15 16 17 18
000
FTAK31 PAJN 192340
TAFAKT
TAF
PAKT 192340Z 2000/2024 14008KT 5SM -RA SCT010 BKN025 OVC030
     FM200100 14005KT P6SM VCSH FEW015 BKN040 OVC060
     FM200600 14011KT P6SM -SHRA SCT015 OVC035
     FM201200 13004KT P6SM VCSH SCT020 BKN040 OVC060
     FM201800 14014G22KT P6SM -SHRA SCT015 OVC030
      AMD LTD TO CLD VIS AND WIND 2006/2015=

USA.gov is the U.S. government's official web portal to all federal, state and local government web resources and services.